sensor_id;sensor_type;location;lat;lon;timestamp;temperature;humidity
3868;DHT22;1949;48.152;11.528;2023-12-07T00:01:37;8.80;50.10
3868;DHT22;1949;48.152;11.528;2023-12-07T00:04:03;8.80;50.00
3868;DHT22;1949;48.152;11.528;2023-12-07T00:06:29;8.90;50.10
3868;DHT22;1949;48.152;11.528;2023-12-07T00:08:55;8.80;50.10
3868;DHT22;1949;48.152;11.528;2023-12-07T00:11:25;8.80;50.00
3868;DHT22;1949;48.152;11.528;2023-12-07T00:13:51;8.80;49.90
3868;DHT22;1949;48.152;11.528;2023-12-07T00:16:17;8.70;49.90
3868;DHT22;1949;48.152;11.528;2023-12-07T00:18:42;8.60;49.90
3868;DHT22;1949;48.152;11.528;2023-12-07T00:21:09;8.60;50.00
3868;DHT22;1949;48.152;11.528;2023-12-07T00:23:35;8.60;50.10
3868;DHT22;1949;48.152;11.528;2023-12-07T00:26:00;8.60;50.10
3868;DHT22;1949;48.152;11.528;2023-12-07T00:28:26;8.50;50.10
3868;DHT22;1949;48.152;11.528;2023-12-07T00:30:52;8.50;50.20
3868;DHT22;1949;48.152;11.528;2023-12-07T00:33:17;8.60;50.30
3868;DHT22;1949;48.152;11.528;2023-12-07T00:35:43;8.60;50.30
3868;DHT22;1949;48.152;11.528;2023-12-07T00:38:09;8.60;50.30
3868;DHT22;1949;48.152;11.528;2023-12-07T00:40:36;8.60;50.30
3868;DHT22;1949;48.152;11.528;2023-12-07T00:43:05;8.60;50.20
3868;DHT22;1949;48.152;11.528;2023-12-07T00:45:32;8.60;50.20
3868;DHT22;1949;48.152;11.528;2023-12-07T00:47:59;8.70;50.20
3868;DHT22;1949;48.152;11.528;2023-12-07T00:50:25;8.70;50.20
3868;DHT22;1949;48.152;11.528;2023-12-07T00:52:52;8.70;50.10
3868;DHT22;1949;48.152;11.528;2023-12-07T00:55:18;8.70;50.20
3868;DHT22;1949;48.152;11.528;2023-12-07T00:57:44;8.60;50.00
3868;DHT22;1949;48.152;11.528;2023-12-07T01:00:10;8.60;50.10
3868;DHT22;1949;48.152;11.528;2023-12-07T01:02:37;8.60;50.10
3868;DHT22;1949;48.152;11.528;2023-12-07T01:05:04;8.60;50.10
3868;DHT22;1949;48.152;11.528;2023-12-07T01:07:29;8.60;50.00
3868;DHT22;1949;48.152;11.528;2023-12-07T01:09:55;8.60;50.00
3868;DHT22;1949;48.152;11.528;2023-12-07T01:12:21;8.60;50.00
3868;DHT22;1949;48.152;11.528;2023-12-07T01:14:46;8.60;50.10
3868;DHT22;1949;48.152;11.528;2023-12-07T01:17:12;8.60;50.00
3868;DHT22;1949;48.152;11.528;2023-12-07T01:19:38;8.60;50.00
3868;DHT22;1949;48.152;11.528;2023-12-07T01:22:05;8.60;50.00
3868;DHT22;1949;48.152;11.528;2023-12-07T01:24:31;8.50;49.90
3868;DHT22;1949;48.152;11.528;2023-12-07T01:26:59;8.50;50.00
3868;DHT22;1949;48.152;11.528;2023-12-07T01:29:24;8.50;50.00
3868;DHT22;1949;48.152;11.528;2023-12-07T01:31:51;8.50;50.00
3868;DHT22;1949;48.152;11.528;2023-12-07T01:34:18;8.40;49.90
3868;DHT22;1949;48.152;11.528;2023-12-07T01:36:44;8.40;49.90
3868;DHT22;1949;48.152;11.528;2023-12-07T01:39:10;8.40;49.90
3868;DHT22;1949;48.152;11.528;2023-12-07T01:41:39;8.40;50.00
3868;DHT22;1949;48.152;11.528;2023-12-07T01:44:04;8.30;50.00
3868;DHT22;1949;48.152;11.528;2023-12-07T01:46:31;8.30;50.20
3868;DHT22;1949;48.152;11.528;2023-12-07T01:48:58;8.30;50.10
3868;DHT22;1949;48.152;11.528;2023-12-07T01:51:26;8.30;50.20
3868;DHT22;1949;48.152;11.528;2023-12-07T01:53:52;8.30;50.10
3868;DHT22;1949;48.152;11.528;2023-12-07T01:56:18;8.30;50.00
3868;DHT22;1949;48.152;11.528;2023-12-07T01:58:44;8.20;49.80
3868;DHT22;1949;48.152;11.528;2023-12-07T02:01:12;8.20;50.00
3868;DHT22;1949;48.152;11.528;2023-12-07T02:03:41;8.20;50.10
3868;DHT22;1949;48.152;11.528;2023-12-07T02:06:07;8.20;50.10
3868;DHT22;1949;48.152;11.528;2023-12-07T02:08:34;8.20;50.00
3868;DHT22;1949;48.152;11.528;2023-12-07T02:11:00;8.20;50.10
3868;DHT22;1949;48.152;11.528;2023-12-07T02:13:26;8.20;50.00
3868;DHT22;1949;48.152;11.528;2023-12-07T02:15:56;8.20;49.90
3868;DHT22;1949;48.152;11.528;2023-12-07T02:23:26;8.00;49.80
3868;DHT22;1949;48.152;11.528;2023-12-07T02:29:25;7.90;49.90
3868;DHT22;1949;48.152;11.528;2023-12-07T02:31:51;7.80;49.90
3868;DHT22;1949;48.152;11.528;2023-12-07T02:34:17;7.80;49.90
3868;DHT22;1949;48.152;11.528;2023-12-07T02:36:46;7.80;50.10
3868;DHT22;1949;48.152;11.528;2023-12-07T02:39:14;7.70;50.10
3868;DHT22;1949;48.152;11.528;2023-12-07T02:41:40;7.80;50.10
3868;DHT22;1949;48.152;11.528;2023-12-07T02:44:07;7.70;49.90
3868;DHT22;1949;48.152;11.528;2023-12-07T02:46:33;7.60;49.60
3868;DHT22;1949;48.152;11.528;2023-12-07T02:48:59;7.50;49.80
3868;DHT22;1949;48.152;11.528;2023-12-07T02:51:27;7.40;49.80
3868;DHT22;1949;48.152;11.528;2023-12-07T02:53:53;7.30;49.80
3868;DHT22;1949;48.152;11.528;2023-12-07T02:56:20;7.30;50.00
3868;DHT22;1949;48.152;11.528;2023-12-07T02:58:46;7.20;50.10
3868;DHT22;1949;48.152;11.528;2023-12-07T03:01:12;7.20;50.20
3868;DHT22;1949;48.152;11.528;2023-12-07T03:03:40;7.20;50.30
3868;DHT22;1949;48.152;11.528;2023-12-07T03:06:07;7.20;50.10
3868;DHT22;1949;48.152;11.528;2023-12-07T03:08:33;7.10;50.00
3868;DHT22;1949;48.152;11.528;2023-12-07T03:11:01;7.10;50.00
3868;DHT22;1949;48.152;11.528;2023-12-07T03:13:26;7.00;50.10
3868;DHT22;1949;48.152;11.528;2023-12-07T03:15:52;7.00;50.30
3868;DHT22;1949;48.152;11.528;2023-12-07T03:18:18;7.00;50.30
3868;DHT22;1949;48.152;11.528;2023-12-07T03:20:44;7.00;50.30
3868;DHT22;1949;48.152;11.528;2023-12-07T03:23:09;7.10;50.50
3868;DHT22;1949;48.152;11.528;2023-12-07T03:25:35;7.10;50.30
3868;DHT22;1949;48.152;11.528;2023-12-07T03:28:01;7.10;50.10
3868;DHT22;1949;48.152;11.528;2023-12-07T03:30:28;7.10;50.30
3868;DHT22;1949;48.152;11.528;2023-12-07T03:32:53;7.10;50.50
3868;DHT22;1949;48.152;11.528;2023-12-07T03:35:19;7.10;50.30
3868;DHT22;1949;48.152;11.528;2023-12-07T03:37:46;7.10;50.30
3868;DHT22;1949;48.152;11.528;2023-12-07T03:40:11;7.10;50.40
3868;DHT22;1949;48.152;11.528;2023-12-07T03:42:38;7.10;50.30
3868;DHT22;1949;48.152;11.528;2023-12-07T03:45:04;7.10;50.30
3868;DHT22;1949;48.152;11.528;2023-12-07T03:47:31;7.20;50.40
3868;DHT22;1949;48.152;11.528;2023-12-07T03:49:57;7.20;50.30
3868;DHT22;1949;48.152;11.528;2023-12-07T03:52:22;7.20;50.40
3868;DHT22;1949;48.152;11.528;2023-12-07T03:54:48;7.20;50.30
3868;DHT22;1949;48.152;11.528;2023-12-07T03:57:14;7.20;50.30
3868;DHT22;1949;48.152;11.528;2023-12-07T03:59:39;7.30;50.10
3868;DHT22;1949;48.152;11.528;2023-12-07T04:02:05;7.20;50.10
3868;DHT22;1949;48.152;11.528;2023-12-07T04:04:31;7.20;50.00
3868;DHT22;1949;48.152;11.528;2023-12-07T04:06:56;7.10;50.00
3868;DHT22;1949;48.152;11.528;2023-12-07T04:09:22;7.10;50.10
3868;DHT22;1949;48.152;11.528;2023-12-07T04:11:50;7.10;50.10
3868;DHT22;1949;48.152;11.528;2023-12-07T04:14:18;7.00;50.10
3868;DHT22;1949;48.152;11.528;2023-12-07T04:16:44;7.00;50.10
3868;DHT22;1949;48.152;11.528;2023-12-07T04:19:10;7.00;50.20
3868;DHT22;1949;48.152;11.528;2023-12-07T04:21:36;7.10;50.30
3868;DHT22;1949;48.152;11.528;2023-12-07T04:24:03;7.10;50.30
3868;DHT22;1949;48.152;11.528;2023-12-07T04:26:29;7.10;50.50
3868;DHT22;1949;48.152;11.528;2023-12-07T04:28:55;7.20;50.30
3868;DHT22;1949;48.152;11.528;2023-12-07T04:31:21;7.20;50.20
3868;DHT22;1949;48.152;11.528;2023-12-07T04:33:46;7.20;50.10
3868;DHT22;1949;48.152;11.528;2023-12-07T04:36:13;7.20;50.10
3868;DHT22;1949;48.152;11.528;2023-12-07T04:38:39;7.20;50.50
3868;DHT22;1949;48.152;11.528;2023-12-07T04:41:07;7.10;49.90
3868;DHT22;1949;48.152;11.528;2023-12-07T04:43:34;7.00;50.00
3868;DHT22;1949;48.152;11.528;2023-12-07T04:45:59;7.00;50.00
3868;DHT22;1949;48.152;11.528;2023-12-07T04:48:25;7.00;49.80
3868;DHT22;1949;48.152;11.528;2023-12-07T04:50:57;6.90;50.00
3868;DHT22;1949;48.152;11.528;2023-12-07T04:53:23;6.90;50.00
3868;DHT22;1949;48.152;11.528;2023-12-07T04:55:50;6.80;49.90
3868;DHT22;1949;48.152;11.528;2023-12-07T04:58:15;6.80;50.10
3868;DHT22;1949;48.152;11.528;2023-12-07T05:00:42;6.80;50.10
3868;DHT22;1949;48.152;11.528;2023-12-07T05:03:08;6.80;50.10
3868;DHT22;1949;48.152;11.528;2023-12-07T05:05:34;6.80;50.10
3868;DHT22;1949;48.152;11.528;2023-12-07T05:08:03;6.70;50.00
3868;DHT22;1949;48.152;11.528;2023-12-07T05:10:29;6.70;50.10
3868;DHT22;1949;48.152;11.528;2023-12-07T05:12:56;6.70;50.10
3868;DHT22;1949;48.152;11.528;2023-12-07T05:15:22;6.70;50.10
3868;DHT22;1949;48.152;11.528;2023-12-07T05:17:48;6.70;50.00
3868;DHT22;1949;48.152;11.528;2023-12-07T05:20:15;6.70;50.20
3868;DHT22;1949;48.152;11.528;2023-12-07T05:22:41;6.70;50.20
3868;DHT22;1949;48.152;11.528;2023-12-07T05:25:06;6.70;50.20
3868;DHT22;1949;48.152;11.528;2023-12-07T05:27:32;6.80;50.10
3868;DHT22;1949;48.152;11.528;2023-12-07T05:29:58;6.80;50.10
3868;DHT22;1949;48.152;11.528;2023-12-07T05:32:24;6.80;50.10
3868;DHT22;1949;48.152;11.528;2023-12-07T05:34:50;6.80;50.10
3868;DHT22;1949;48.152;11.528;2023-12-07T05:37:16;6.80;50.20
3868;DHT22;1949;48.152;11.528;2023-12-07T05:39:43;6.80;50.00
3868;DHT22;1949;48.152;11.528;2023-12-07T05:42:08;6.80;49.90
3868;DHT22;1949;48.152;11.528;2023-12-07T05:44:34;6.80;50.00
3868;DHT22;1949;48.152;11.528;2023-12-07T05:47:00;6.70;49.90
3868;DHT22;1949;48.152;11.528;2023-12-07T05:49:27;6.70;49.90
3868;DHT22;1949;48.152;11.528;2023-12-07T05:51:53;6.80;50.00
3868;DHT22;1949;48.152;11.528;2023-12-07T05:54:18;6.70;49.90
3868;DHT22;1949;48.152;11.528;2023-12-07T05:56:47;6.70;49.80
3868;DHT22;1949;48.152;11.528;2023-12-07T05:59:15;6.70;49.90
3868;DHT22;1949;48.152;11.528;2023-12-07T06:01:44;6.70;49.90
3868;DHT22;1949;48.152;11.528;2023-12-07T06:04:10;6.70;49.80
3868;DHT22;1949;48.152;11.528;2023-12-07T06:06:38;6.70;49.70
3868;DHT22;1949;48.152;11.528;2023-12-07T06:09:04;6.70;49.80
3868;DHT22;1949;48.152;11.528;2023-12-07T06:11:33;6.70;49.80
3868;DHT22;1949;48.152;11.528;2023-12-07T06:14:01;6.70;49.90
3868;DHT22;1949;48.152;11.528;2023-12-07T06:16:28;6.70;49.80
3868;DHT22;1949;48.152;11.528;2023-12-07T06:18:55;6.60;49.60
3868;DHT22;1949;48.152;11.528;2023-12-07T06:21:20;6.60;49.60
3868;DHT22;1949;48.152;11.528;2023-12-07T06:23:49;6.50;49.60
3868;DHT22;1949;48.152;11.528;2023-12-07T06:26:15;6.40;49.60
3868;DHT22;1949;48.152;11.528;2023-12-07T06:28:41;6.40;49.60
3868;DHT22;1949;48.152;11.528;2023-12-07T06:31:14;6.40;49.60
3868;DHT22;1949;48.152;11.528;2023-12-07T06:33:48;6.30;49.70
3868;DHT22;1949;48.152;11.528;2023-12-07T06:36:22;6.30;49.70
3868;DHT22;1949;48.152;11.528;2023-12-07T06:38:48;6.20;49.70
3868;DHT22;1949;48.152;11.528;2023-12-07T06:41:14;6.20;49.80
3868;DHT22;1949;48.152;11.528;2023-12-07T06:43:41;6.30;50.00
3868;DHT22;1949;48.152;11.528;2023-12-07T06:46:07;6.30;50.00
3868;DHT22;1949;48.152;11.528;2023-12-07T06:48:34;6.30;49.90
3868;DHT22;1949;48.152;11.528;2023-12-07T06:51:00;6.20;49.70
3868;DHT22;1949;48.152;11.528;2023-12-07T06:53:26;6.20;49.70
3868;DHT22;1949;48.152;11.528;2023-12-07T06:55:52;6.20;49.80
3868;DHT22;1949;48.152;11.528;2023-12-07T06:58:19;6.20;49.80
3868;DHT22;1949;48.152;11.528;2023-12-07T07:00:44;6.10;49.70
3868;DHT22;1949;48.152;11.528;2023-12-07T07:03:10;6.10;49.70
3868;DHT22;1949;48.152;11.528;2023-12-07T07:05:36;6.10;49.90
3868;DHT22;1949;48.152;11.528;2023-12-07T07:08:14;6.10;49.80
3868;DHT22;1949;48.152;11.528;2023-12-07T07:10:40;6.10;49.90
3868;DHT22;1949;48.152;11.528;2023-12-07T07:13:06;6.10;49.80
3868;DHT22;1949;48.152;11.528;2023-12-07T07:15:34;6.10;49.80
3868;DHT22;1949;48.152;11.528;2023-12-07T07:18:01;6.10;49.80
3868;DHT22;1949;48.152;11.528;2023-12-07T07:20:30;6.10;49.80
3868;DHT22;1949;48.152;11.528;2023-12-07T07:22:56;6.10;49.90
3868;DHT22;1949;48.152;11.528;2023-12-07T07:25:21;6.10;50.00
3868;DHT22;1949;48.152;11.528;2023-12-07T07:27:50;6.10;50.00
3868;DHT22;1949;48.152;11.528;2023-12-07T07:33:46;6.10;49.90
3868;DHT22;1949;48.152;11.528;2023-12-07T07:36:13;6.20;50.00
3868;DHT22;1949;48.152;11.528;2023-12-07T07:38:59;6.20;50.00
3868;DHT22;1949;48.152;11.528;2023-12-07T07:41:44;6.20;49.90
3868;DHT22;1949;48.152;11.528;2023-12-07T07:44:10;6.20;49.80
3868;DHT22;1949;48.152;11.528;2023-12-07T07:46:36;6.20;49.70
3868;DHT22;1949;48.152;11.528;2023-12-07T07:49:02;6.20;49.80
3868;DHT22;1949;48.152;11.528;2023-12-07T07:51:30;6.20;49.80
3868;DHT22;1949;48.152;11.528;2023-12-07T07:54:01;6.10;49.80
3868;DHT22;1949;48.152;11.528;2023-12-07T07:56:32;6.10;49.80
3868;DHT22;1949;48.152;11.528;2023-12-07T07:58:58;6.20;50.00
3868;DHT22;1949;48.152;11.528;2023-12-07T08:01:27;6.20;50.00
3868;DHT22;1949;48.152;11.528;2023-12-07T08:03:52;6.20;50.00
3868;DHT22;1949;48.152;11.528;2023-12-07T08:06:21;6.20;49.80
3868;DHT22;1949;48.152;11.528;2023-12-07T08:08:50;6.30;49.90
3868;DHT22;1949;48.152;11.528;2023-12-07T08:11:16;6.30;49.90
3868;DHT22;1949;48.152;11.528;2023-12-07T08:13:42;6.30;49.90
3868;DHT22;1949;48.152;11.528;2023-12-07T08:16:14;6.30;49.80
3868;DHT22;1949;48.152;11.528;2023-12-07T08:18:41;6.40;49.90
3868;DHT22;1949;48.152;11.528;2023-12-07T08:21:07;6.40;49.80
3868;DHT22;1949;48.152;11.528;2023-12-07T08:23:35;6.40;49.80
3868;DHT22;1949;48.152;11.528;2023-12-07T08:26:01;6.40;49.70
3868;DHT22;1949;48.152;11.528;2023-12-07T08:28:28;6.40;49.70
3868;DHT22;1949;48.152;11.528;2023-12-07T08:30:54;6.50;49.90
3868;DHT22;1949;48.152;11.528;2023-12-07T08:33:20;6.50;49.80
3868;DHT22;1949;48.152;11.528;2023-12-07T08:35:46;6.50;49.80
3868;DHT22;1949;48.152;11.528;2023-12-07T08:38:12;6.60;49.80
3868;DHT22;1949;48.152;11.528;2023-12-07T08:40:38;6.60;49.80
3868;DHT22;1949;48.152;11.528;2023-12-07T08:43:04;6.70;49.90
3868;DHT22;1949;48.152;11.528;2023-12-07T08:45:30;6.70;49.70
3868;DHT22;1949;48.152;11.528;2023-12-07T08:47:55;6.80;49.70
3868;DHT22;1949;48.152;11.528;2023-12-07T08:50:21;6.80;49.60
3868;DHT22;1949;48.152;11.528;2023-12-07T08:52:47;6.90;49.70
3868;DHT22;1949;48.152;11.528;2023-12-07T08:55:12;6.90;49.50
3868;DHT22;1949;48.152;11.528;2023-12-07T08:57:40;7.00;49.50
3868;DHT22;1949;48.152;11.528;2023-12-07T09:00:07;7.00;49.30
3868;DHT22;1949;48.152;11.528;2023-12-07T09:02:33;7.00;49.30
3868;DHT22;1949;48.152;11.528;2023-12-07T09:04:59;7.10;49.40
3868;DHT22;1949;48.152;11.528;2023-12-07T09:07:26;7.10;49.30
3868;DHT22;1949;48.152;11.528;2023-12-07T09:09:52;7.20;49.50
3868;DHT22;1949;48.152;11.528;2023-12-07T09:12:17;7.20;49.20
3868;DHT22;1949;48.152;11.528;2023-12-07T09:14:43;7.30;49.10
3868;DHT22;1949;48.152;11.528;2023-12-07T09:17:09;7.30;49.00
3868;DHT22;1949;48.152;11.528;2023-12-07T09:19:34;7.30;49.00
3868;DHT22;1949;48.152;11.528;2023-12-07T09:22:00;7.40;49.00
3868;DHT22;1949;48.152;11.528;2023-12-07T09:24:26;7.40;49.00
3868;DHT22;1949;48.152;11.528;2023-12-07T09:26:52;7.40;49.00
3868;DHT22;1949;48.152;11.528;2023-12-07T09:29:18;7.50;49.00
3868;DHT22;1949;48.152;11.528;2023-12-07T09:31:44;7.60;49.00
3868;DHT22;1949;48.152;11.528;2023-12-07T09:34:12;7.70;49.00
3868;DHT22;1949;48.152;11.528;2023-12-07T09:36:47;7.80;48.80
3868;DHT22;1949;48.152;11.528;2023-12-07T09:39:12;7.90;48.50
3868;DHT22;1949;48.152;11.528;2023-12-07T09:41:39;7.90;48.30
3868;DHT22;1949;48.152;11.528;2023-12-07T09:44:08;8.00;48.30
3868;DHT22;1949;48.152;11.528;2023-12-07T09:46:34;8.00;48.30
3868;DHT22;1949;48.152;11.528;2023-12-07T09:49:00;8.00;48.40
3868;DHT22;1949;48.152;11.528;2023-12-07T09:51:25;8.10;48.30
3868;DHT22;1949;48.152;11.528;2023-12-07T09:53:53;8.20;48.20
3868;DHT22;1949;48.152;11.528;2023-12-07T09:56:19;8.20;47.60
3868;DHT22;1949;48.152;11.528;2023-12-07T09:58:48;8.20;47.50
3868;DHT22;1949;48.152;11.528;2023-12-07T10:01:15;8.10;47.30
3868;DHT22;1949;48.152;11.528;2023-12-07T10:03:45;8.10;47.40
3868;DHT22;1949;48.152;11.528;2023-12-07T10:06:12;8.20;47.40
3868;DHT22;1949;48.152;11.528;2023-12-07T10:08:38;8.20;47.40
3868;DHT22;1949;48.152;11.528;2023-12-07T10:11:05;8.20;47.20
3868;DHT22;1949;48.152;11.528;2023-12-07T10:13:33;8.20;47.30
3868;DHT22;1949;48.152;11.528;2023-12-07T10:18:35;8.30;47.20
3868;DHT22;1949;48.152;11.528;2023-12-07T10:21:02;8.30;46.80
3868;DHT22;1949;48.152;11.528;2023-12-07T10:23:42;8.30;46.90
3868;DHT22;1949;48.152;11.528;2023-12-07T10:26:21;8.30;46.80
3868;DHT22;1949;48.152;11.528;2023-12-07T10:28:51;8.30;46.70
3868;DHT22;1949;48.152;11.528;2023-12-07T10:31:26;8.30;46.50
3868;DHT22;1949;48.152;11.528;2023-12-07T10:33:56;8.30;46.40
3868;DHT22;1949;48.152;11.528;2023-12-07T10:36:22;8.30;46.40
3868;DHT22;1949;48.152;11.528;2023-12-07T10:38:48;8.30;46.40
3868;DHT22;1949;48.152;11.528;2023-12-07T10:41:22;8.40;46.40
3868;DHT22;1949;48.152;11.528;2023-12-07T10:43:52;8.40;46.40
3868;DHT22;1949;48.152;11.528;2023-12-07T10:46:21;8.40;46.10
3868;DHT22;1949;48.152;11.528;2023-12-07T10:48:55;8.40;45.90
3868;DHT22;1949;48.152;11.528;2023-12-07T10:51:31;8.40;46.00
3868;DHT22;1949;48.152;11.528;2023-12-07T10:53:57;8.40;46.10
3868;DHT22;1949;48.152;11.528;2023-12-07T10:56:39;8.50;46.10
3868;DHT22;1949;48.152;11.528;2023-12-07T10:59:07;8.50;46.00
3868;DHT22;1949;48.152;11.528;2023-12-07T11:01:40;8.50;46.10
3868;DHT22;1949;48.152;11.528;2023-12-07T11:04:11;8.60;46.20
3868;DHT22;1949;48.152;11.528;2023-12-07T11:06:39;8.70;46.00
3868;DHT22;1949;48.152;11.528;2023-12-07T11:09:09;8.70;45.90
3868;DHT22;1949;48.152;11.528;2023-12-07T11:11:51;8.80;45.80
3868;DHT22;1949;48.152;11.528;2023-12-07T11:14:18;8.80;45.90
3868;DHT22;1949;48.152;11.528;2023-12-07T11:16:46;8.90;45.70
3868;DHT22;1949;48.152;11.528;2023-12-07T11:22:01;9.10;45.90
3868;DHT22;1949;48.152;11.528;2023-12-07T11:24:37;9.20;45.80
3868;DHT22;1949;48.152;11.528;2023-12-07T11:27:03;9.30;45.50
3868;DHT22;1949;48.152;11.528;2023-12-07T11:29:30;9.40;45.40
3868;DHT22;1949;48.152;11.528;2023-12-07T11:31:57;9.40;45.40
3868;DHT22;1949;48.152;11.528;2023-12-07T11:34:42;9.50;45.40
3868;DHT22;1949;48.152;11.528;2023-12-07T11:37:09;9.60;45.40
3868;DHT22;1949;48.152;11.528;2023-12-07T11:39:36;9.70;45.30
3868;DHT22;1949;48.152;11.528;2023-12-07T11:42:16;9.80;45.10
3868;DHT22;1949;48.152;11.528;2023-12-07T11:44:44;9.90;45.60
3868;DHT22;1949;48.152;11.528;2023-12-07T11:47:19;10.00;44.10
3868;DHT22;1949;48.152;11.528;2023-12-07T11:49:46;10.10;44.00
3868;DHT22;1949;48.152;11.528;2023-12-07T11:52:18;10.20;44.00
3868;DHT22;1949;48.152;11.528;2023-12-07T11:54:45;10.30;43.80
3868;DHT22;1949;48.152;11.528;2023-12-07T11:57:14;10.40;43.70
3868;DHT22;1949;48.152;11.528;2023-12-07T11:59:42;10.50;43.70
3868;DHT22;1949;48.152;11.528;2023-12-07T12:02:12;10.60;43.60
3868;DHT22;1949;48.152;11.528;2023-12-07T12:04:41;10.70;43.40
3868;DHT22;1949;48.152;11.528;2023-12-07T12:07:07;10.80;43.40
3868;DHT22;1949;48.152;11.528;2023-12-07T12:09:33;10.90;43.30
3868;DHT22;1949;48.152;11.528;2023-12-07T12:12:00;11.00;43.30
3868;DHT22;1949;48.152;11.528;2023-12-07T12:14:29;11.20;43.20
3868;DHT22;1949;48.152;11.528;2023-12-07T12:16:56;11.40;43.00
3868;DHT22;1949;48.152;11.528;2023-12-07T12:19:26;11.60;42.90
3868;DHT22;1949;48.152;11.528;2023-12-07T12:21:54;11.80;42.80
3868;DHT22;1949;48.152;11.528;2023-12-07T12:24:24;12.10;43.00
3868;DHT22;1949;48.152;11.528;2023-12-07T12:26:50;12.30;42.50
3868;DHT22;1949;48.152;11.528;2023-12-07T12:29:17;12.50;42.40
3868;DHT22;1949;48.152;11.528;2023-12-07T12:31:46;12.70;42.30
3868;DHT22;1949;48.152;11.528;2023-12-07T12:34:13;12.90;42.00
3868;DHT22;1949;48.152;11.528;2023-12-07T12:36:47;13.00;41.60
3868;DHT22;1949;48.152;11.528;2023-12-07T12:39:17;13.00;41.40
3868;DHT22;1949;48.152;11.528;2023-12-07T12:41:43;13.00;41.40
3868;DHT22;1949;48.152;11.528;2023-12-07T12:44:11;13.00;41.40
3868;DHT22;1949;48.152;11.528;2023-12-07T12:46:44;13.00;41.30
3868;DHT22;1949;48.152;11.528;2023-12-07T12:49:10;13.00;41.00
3868;DHT22;1949;48.152;11.528;2023-12-07T12:51:38;13.00;41.10
3868;DHT22;1949;48.152;11.528;2023-12-07T12:54:03;13.00;41.20
3868;DHT22;1949;48.152;11.528;2023-12-07T12:56:29;13.00;40.90
3868;DHT22;1949;48.152;11.528;2023-12-07T12:58:56;12.90;41.00
3868;DHT22;1949;48.152;11.528;2023-12-07T13:01:26;12.90;40.90
3868;DHT22;1949;48.152;11.528;2023-12-07T13:03:52;12.90;40.60
3868;DHT22;1949;48.152;11.528;2023-12-07T13:06:18;12.80;40.60
3868;DHT22;1949;48.152;11.528;2023-12-07T13:08:47;12.80;40.60
3868;DHT22;1949;48.152;11.528;2023-12-07T13:11:18;12.70;40.30
3868;DHT22;1949;48.152;11.528;2023-12-07T13:13:45;12.60;40.40
3868;DHT22;1949;48.152;11.528;2023-12-07T13:16:17;12.60;40.60
3868;DHT22;1949;48.152;11.528;2023-12-07T13:18:43;12.50;40.20
3868;DHT22;1949;48.152;11.528;2023-12-07T13:21:09;12.40;40.50
3868;DHT22;1949;48.152;11.528;2023-12-07T13:23:40;12.30;40.70
3868;DHT22;1949;48.152;11.528;2023-12-07T13:26:05;12.20;40.70
3868;DHT22;1949;48.152;11.528;2023-12-07T13:28:32;12.10;40.50
3868;DHT22;1949;48.152;11.528;2023-12-07T13:31:01;12.00;40.50
3868;DHT22;1949;48.152;11.528;2023-12-07T13:33:27;12.00;40.60
3868;DHT22;1949;48.152;11.528;2023-12-07T13:35:53;11.90;40.60
3868;DHT22;1949;48.152;11.528;2023-12-07T13:38:21;11.90;40.70
3868;DHT22;1949;48.152;11.528;2023-12-07T13:40:47;11.90;40.70
3868;DHT22;1949;48.152;11.528;2023-12-07T13:43:14;11.80;40.80
3868;DHT22;1949;48.152;11.528;2023-12-07T13:45:41;11.80;40.90
3868;DHT22;1949;48.152;11.528;2023-12-07T13:48:08;11.80;40.70
3868;DHT22;1949;48.152;11.528;2023-12-07T13:50:33;11.70;40.70
3868;DHT22;1949;48.152;11.528;2023-12-07T13:53:00;11.70;40.90
3868;DHT22;1949;48.152;11.528;2023-12-07T13:55:26;11.70;40.80
3868;DHT22;1949;48.152;11.528;2023-12-07T13:57:51;11.70;40.70
3868;DHT22;1949;48.152;11.528;2023-12-07T14:00:20;11.60;40.60
3868;DHT22;1949;48.152;11.528;2023-12-07T14:02:55;11.60;40.50
3868;DHT22;1949;48.152;11.528;2023-12-07T14:05:20;11.40;40.40
3868;DHT22;1949;48.152;11.528;2023-12-07T14:07:49;11.30;40.50
3868;DHT22;1949;48.152;11.528;2023-12-07T14:10:16;11.20;40.50
3868;DHT22;1949;48.152;11.528;2023-12-07T14:12:42;11.10;40.60
3868;DHT22;1949;48.152;11.528;2023-12-07T14:15:09;11.00;40.60
3868;DHT22;1949;48.152;11.528;2023-12-07T14:17:36;10.90;40.70
3868;DHT22;1949;48.152;11.528;2023-12-07T14:20:06;10.80;40.70
3868;DHT22;1949;48.152;11.528;2023-12-07T14:22:34;10.70;40.70
3868;DHT22;1949;48.152;11.528;2023-12-07T14:25:02;10.60;40.70
3868;DHT22;1949;48.152;11.528;2023-12-07T14:27:37;10.50;40.70
3868;DHT22;1949;48.152;11.528;2023-12-07T14:30:03;10.50;40.70
3868;DHT22;1949;48.152;11.528;2023-12-07T14:32:28;10.40;40.80
3868;DHT22;1949;48.152;11.528;2023-12-07T14:34:55;10.50;40.90
3868;DHT22;1949;48.152;11.528;2023-12-07T14:37:29;10.40;40.70
3868;DHT22;1949;48.152;11.528;2023-12-07T14:39:54;10.30;40.60
3868;DHT22;1949;48.152;11.528;2023-12-07T14:42:21;10.30;40.90
3868;DHT22;1949;48.152;11.528;2023-12-07T14:44:47;10.30;40.80
3868;DHT22;1949;48.152;11.528;2023-12-07T14:47:13;10.30;40.90
3868;DHT22;1949;48.152;11.528;2023-12-07T14:49:41;10.20;40.90
3868;DHT22;1949;48.152;11.528;2023-12-07T14:52:09;10.20;40.80
3868;DHT22;1949;48.152;11.528;2023-12-07T14:54:38;10.20;40.80
3868;DHT22;1949;48.152;11.528;2023-12-07T14:57:04;10.20;40.70
3868;DHT22;1949;48.152;11.528;2023-12-07T14:59:35;10.20;40.90
3868;DHT22;1949;48.152;11.528;2023-12-07T15:02:02;10.20;40.90
3868;DHT22;1949;48.152;11.528;2023-12-07T15:04:28;10.20;41.00
3868;DHT22;1949;48.152;11.528;2023-12-07T15:06:55;10.20;41.00
3868;DHT22;1949;48.152;11.528;2023-12-07T15:09:21;10.20;41.00
3868;DHT22;1949;48.152;11.528;2023-12-07T15:11:48;10.10;40.70
3868;DHT22;1949;48.152;11.528;2023-12-07T15:14:21;10.10;40.70
3868;DHT22;1949;48.152;11.528;2023-12-07T15:16:49;10.10;40.70
3868;DHT22;1949;48.152;11.528;2023-12-07T15:19:19;10.00;40.70
3868;DHT22;1949;48.152;11.528;2023-12-07T15:21:44;10.00;40.70
3868;DHT22;1949;48.152;11.528;2023-12-07T15:24:10;10.00;40.80
3868;DHT22;1949;48.152;11.528;2023-12-07T15:26:36;9.90;41.60
3868;DHT22;1949;48.152;11.528;2023-12-07T15:29:02;9.90;41.70
3868;DHT22;1949;48.152;11.528;2023-12-07T15:31:29;9.90;41.80
3868;DHT22;1949;48.152;11.528;2023-12-07T15:33:56;9.90;41.90
3868;DHT22;1949;48.152;11.528;2023-12-07T15:36:21;9.90;41.80
3868;DHT22;1949;48.152;11.528;2023-12-07T15:38:47;9.80;41.80
3868;DHT22;1949;48.152;11.528;2023-12-07T15:41:14;9.80;41.70
3868;DHT22;1949;48.152;11.528;2023-12-07T15:43:40;9.80;41.70
3868;DHT22;1949;48.152;11.528;2023-12-07T15:46:07;9.80;41.70
3868;DHT22;1949;48.152;11.528;2023-12-07T15:48:33;9.80;41.60
3868;DHT22;1949;48.152;11.528;2023-12-07T15:51:00;9.80;41.60
3868;DHT22;1949;48.152;11.528;2023-12-07T15:53:25;9.70;41.60
3868;DHT22;1949;48.152;11.528;2023-12-07T15:55:51;9.70;41.50
3868;DHT22;1949;48.152;11.528;2023-12-07T15:58:18;9.70;41.60
3868;DHT22;1949;48.152;11.528;2023-12-07T16:00:44;9.70;41.60
3868;DHT22;1949;48.152;11.528;2023-12-07T16:03:10;9.70;41.70
3868;DHT22;1949;48.152;11.528;2023-12-07T16:05:36;9.60;41.60
3868;DHT22;1949;48.152;11.528;2023-12-07T16:08:03;9.60;41.60
3868;DHT22;1949;48.152;11.528;2023-12-07T16:10:29;9.60;41.70
3868;DHT22;1949;48.152;11.528;2023-12-07T16:12:54;9.60;41.70
3868;DHT22;1949;48.152;11.528;2023-12-07T16:15:21;9.60;41.90